sensor_id;sensor_type;location;lat;lon;timestamp;pressure;altitude;pressure_sealevel;temperature;humidity
57900;BME280;60605;53.716;19.940;2023-03-01T00:01:19;101631.25;;;-2.18;99.31
57900;BME280;60605;53.716;19.940;2023-03-01T00:06:24;101632.15;;;-2.19;99.31
57900;BME280;60605;53.716;19.940;2023-03-01T00:11:30;101630.45;;;-2.21;99.47
57900;BME280;60605;53.716;19.940;2023-03-01T00:16:37;101619.09;;;-2.22;99.68
57900;BME280;60605;53.716;19.940;2023-03-01T00:21:42;101616.09;;;-2.21;99.95
57900;BME280;60605;53.716;19.940;2023-03-01T00:26:46;101614.67;;;-2.20;99.99
57900;BME280;60605;53.716;19.940;2023-03-01T00:31:49;101616.40;;;-2.19;100.00
57900;BME280;60605;53.716;19.940;2023-03-01T00:36:52;101605.85;;;-2.18;100.00
57900;BME280;60605;53.716;19.940;2023-03-01T00:41:55;101601.44;;;-2.16;100.00
57900;BME280;60605;53.716;19.940;2023-03-01T00:46:59;101594.20;;;-2.13;100.00
57900;BME280;60605;53.716;19.940;2023-03-01T00:52:02;101597.42;;;-2.10;100.00
57900;BME280;60605;53.716;19.940;2023-03-01T00:57:05;101606.70;;;-2.03;100.00
57900;BME280;60605;53.716;19.940;2023-03-01T01:02:08;101605.38;;;-1.99;100.00
57900;BME280;60605;53.716;19.940;2023-03-01T01:07:12;101607.77;;;-1.97;100.00
57900;BME280;60605;53.716;19.940;2023-03-01T01:12:15;101603.75;;;-1.97;100.00
57900;BME280;60605;53.716;19.940;2023-03-01T01:17:18;101604.78;;;-1.97;100.00
57900;BME280;60605;53.716;19.940;2023-03-01T01:22:22;101597.94;;;-1.97;100.00
57900;BME280;60605;53.716;19.940;2023-03-01T01:27:25;101603.73;;;-1.97;100.00
57900;BME280;60605;53.716;19.940;2023-03-01T01:32:29;101600.94;;;-1.97;100.00
57900;BME280;60605;53.716;19.940;2023-03-01T01:37:34;101591.52;;;-1.98;100.00
57900;BME280;60605;53.716;19.940;2023-03-01T01:42:37;101598.20;;;-1.99;100.00
57900;BME280;60605;53.716;19.940;2023-03-01T01:47:40;101593.97;;;-1.99;100.00
57900;BME280;60605;53.716;19.940;2023-03-01T01:52:44;101581.71;;;-1.98;100.00
57900;BME280;60605;53.716;19.940;2023-03-01T01:57:52;101572.96;;;-1.99;100.00
57900;BME280;60605;53.716;19.940;2023-03-01T02:03:00;101561.23;;;-1.98;100.00
57900;BME280;60605;53.716;19.940;2023-03-01T02:08:05;101554.60;;;-1.99;100.00
57900;BME280;60605;53.716;19.940;2023-03-01T02:13:09;101546.39;;;-2.00;100.00
57900;BME280;60605;53.716;19.940;2023-03-01T02:18:17;101547.59;;;-1.98;100.00
57900;BME280;60605;53.716;19.940;2023-03-01T02:23:24;101554.71;;;-1.96;100.00
57900;BME280;60605;53.716;19.940;2023-03-01T02:28:36;101560.52;;;-1.91;100.00
57900;BME280;60605;53.716;19.940;2023-03-01T02:33:41;101571.72;;;-1.78;100.00
57900;BME280;60605;53.716;19.940;2023-03-01T02:38:47;101567.23;;;-1.63;100.00
57900;BME280;60605;53.716;19.940;2023-03-01T02:43:52;101568.16;;;-1.47;100.00
57900;BME280;60605;53.716;19.940;2023-03-01T02:48:57;101562.09;;;-1.31;100.00
57900;BME280;60605;53.716;19.940;2023-03-01T02:59:19;101530.83;;;-1.06;100.00
57900;BME280;60605;53.716;19.940;2023-03-01T03:04:23;101525.22;;;-0.96;100.00
57900;BME280;60605;53.716;19.940;2023-03-01T03:09:26;101519.27;;;-0.86;100.00
57900;BME280;60605;53.716;19.940;2023-03-01T03:14:30;101516.12;;;-0.75;100.00
57900;BME280;60605;53.716;19.940;2023-03-01T03:19:38;101506.48;;;-0.66;100.00
57900;BME280;60605;53.716;19.940;2023-03-01T03:24:41;101501.05;;;-0.56;100.00
57900;BME280;60605;53.716;19.940;2023-03-01T03:29:44;101495.70;;;-0.49;100.00
57900;BME280;60605;53.716;19.940;2023-03-01T03:34:47;101490.20;;;-0.42;99.98
57900;BME280;60605;53.716;19.940;2023-03-01T03:39:51;101488.59;;;-0.35;99.67
57900;BME280;60605;53.716;19.940;2023-03-01T03:44:57;101484.52;;;-0.30;99.35
57900;BME280;60605;53.716;19.940;2023-03-01T03:50:00;101481.16;;;-0.24;99.18
57900;BME280;60605;53.716;19.940;2023-03-01T03:55:05;101486.08;;;-0.20;99.02
57900;BME280;60605;53.716;19.940;2023-03-01T04:00:12;101481.39;;;-0.16;98.66
57900;BME280;60605;53.716;19.940;2023-03-01T04:05:17;101477.05;;;-0.13;98.49
57900;BME280;60605;53.716;19.940;2023-03-01T04:10:21;101477.52;;;-0.11;98.27
57900;BME280;60605;53.716;19.940;2023-03-01T04:15:25;101478.10;;;-0.08;98.21
57900;BME280;60605;53.716;19.940;2023-03-01T04:20:32;101476.24;;;-0.05;98.11
57900;BME280;60605;53.716;19.940;2023-03-01T04:26:12;101480.40;;;-0.04;97.92
57900;BME280;60605;53.716;19.940;2023-03-01T04:31:13;101476.64;;;-0.02;97.78
57900;BME280;60605;53.716;19.940;2023-03-01T04:36:21;101479.25;;;-0.02;97.59
57900;BME280;60605;53.716;19.940;2023-03-01T04:41:25;101481.48;;;0.00;97.51
57900;BME280;60605;53.716;19.940;2023-03-01T04:46:29;101477.10;;;-0.00;97.26
57900;BME280;60605;53.716;19.940;2023-03-01T04:51:32;101476.02;;;0.01;97.35
57900;BME280;60605;53.716;19.940;2023-03-01T04:56:35;101471.23;;;0.02;97.27
57900;BME280;60605;53.716;19.940;2023-03-01T05:01:39;101461.42;;;0.01;97.19
57900;BME280;60605;53.716;19.940;2023-03-01T05:06:42;101458.26;;;0.02;97.27
57900;BME280;60605;53.716;19.940;2023-03-01T05:11:45;101458.23;;;0.03;97.29
57900;BME280;60605;53.716;19.940;2023-03-01T05:16:50;101453.64;;;0.03;97.34
57900;BME280;60605;53.716;19.940;2023-03-01T05:21:53;101446.90;;;0.05;97.46
57900;BME280;60605;53.716;19.940;2023-03-01T05:27:09;101437.60;;;0.05;97.30
57900;BME280;60605;53.716;19.940;2023-03-01T05:32:12;101444.98;;;0.05;97.35
57900;BME280;60605;53.716;19.940;2023-03-01T05:37:18;101451.61;;;0.06;97.32
57900;BME280;60605;53.716;19.940;2023-03-01T05:42:22;101449.70;;;0.06;97.22
57900;BME280;60605;53.716;19.940;2023-03-01T05:47:25;101442.45;;;0.07;97.28
57900;BME280;60605;53.716;19.940;2023-03-01T05:52:28;101444.10;;;0.10;97.25
57900;BME280;60605;53.716;19.940;2023-03-01T05:57:31;101447.91;;;0.15;97.44
57900;BME280;60605;53.716;19.940;2023-03-01T06:02:35;101452.91;;;0.22;97.37
57900;BME280;60605;53.716;19.940;2023-03-01T06:07:38;101453.36;;;0.29;97.02
57900;BME280;60605;53.716;19.940;2023-03-01T06:12:42;101462.59;;;0.35;96.74
57900;BME280;60605;53.716;19.940;2023-03-01T06:17:46;101462.00;;;0.41;96.55
57900;BME280;60605;53.716;19.940;2023-03-01T06:22:50;101462.20;;;0.50;96.60
57900;BME280;60605;53.716;19.940;2023-03-01T06:27:54;101460.67;;;0.61;96.32
57900;BME280;60605;53.716;19.940;2023-03-01T06:32:57;101466.30;;;0.74;96.04
57900;BME280;60605;53.716;19.940;2023-03-01T06:38:05;101468.07;;;0.87;95.59
57900;BME280;60605;53.716;19.940;2023-03-01T06:43:08;101470.27;;;1.02;95.05
57900;BME280;60605;53.716;19.940;2023-03-01T06:48:12;101466.47;;;1.21;94.44
57900;BME280;60605;53.716;19.940;2023-03-01T06:53:15;101461.23;;;1.44;93.86
57900;BME280;60605;53.716;19.940;2023-03-01T06:58:18;101465.65;;;1.68;92.76
57900;BME280;60605;53.716;19.940;2023-03-01T07:03:21;101482.87;;;2.01;92.07
57900;BME280;60605;53.716;19.940;2023-03-01T07:08:27;101501.25;;;2.23;90.55
57900;BME280;60605;53.716;19.940;2023-03-01T07:13:30;101505.48;;;2.26;89.74
57900;BME280;60605;53.716;19.940;2023-03-01T07:18:33;101507.84;;;2.32;89.30
57900;BME280;60605;53.716;19.940;2023-03-01T07:23:36;101504.80;;;2.45;88.99
57900;BME280;60605;53.716;19.940;2023-03-01T07:28:40;101503.64;;;2.69;88.59
57900;BME280;60605;53.716;19.940;2023-03-01T07:33:44;101500.91;;;3.28;87.04
57900;BME280;60605;53.716;19.940;2023-03-01T07:38:48;101501.93;;;4.35;85.55
57900;BME280;60605;53.716;19.940;2023-03-01T07:43:52;101493.60;;;6.20;82.89
57900;BME280;60605;53.716;19.940;2023-03-01T07:48:55;101489.67;;;7.81;78.25
57900;BME280;60605;53.716;19.940;2023-03-01T07:54:00;101488.86;;;9.89;72.54
57900;BME280;60605;53.716;19.940;2023-03-01T07:59:03;101492.61;;;12.38;66.94
57900;BME280;60605;53.716;19.940;2023-03-01T08:04:08;101491.31;;;14.60;60.23
57900;BME280;60605;53.716;19.940;2023-03-01T08:09:11;101493.61;;;16.09;52.67
57900;BME280;60605;53.716;19.940;2023-03-01T08:14:14;101491.96;;;16.95;49.58
57900;BME280;60605;53.716;19.940;2023-03-01T08:19:18;101492.29;;;17.67;46.31
57900;BME280;60605;53.716;19.940;2023-03-01T08:24:21;101492.31;;;17.35;43.50
57900;BME280;60605;53.716;19.940;2023-03-01T08:29:25;101486.73;;;16.95;42.31
57900;BME280;60605;53.716;19.940;2023-03-01T08:34:28;101483.15;;;17.08;42.68
57900;BME280;60605;53.716;19.940;2023-03-01T08:39:34;101481.14;;;18.11;41.35
57900;BME280;60605;53.716;19.940;2023-03-01T08:44:38;101482.02;;;18.91;38.20
57900;BME280;60605;53.716;19.940;2023-03-01T08:49:42;101473.70;;;19.27;36.74
57900;BME280;60605;53.716;19.940;2023-03-01T08:54:47;101465.36;;;19.41;36.20
57900;BME280;60605;53.716;19.940;2023-03-01T08:59:50;101449.11;;;19.65;35.53
57900;BME280;60605;53.716;19.940;2023-03-01T09:04:54;101441.87;;;20.92;33.56
57900;BME280;60605;53.716;19.940;2023-03-01T09:09:57;101456.19;;;21.89;32.63
57900;BME280;60605;53.716;19.940;2023-03-01T09:15:04;101460.75;;;22.66;31.78
57900;BME280;60605;53.716;19.940;2023-03-01T09:20:10;101456.62;;;23.54;29.73
57900;BME280;60605;53.716;19.940;2023-03-01T09:25:16;101451.79;;;24.48;29.14
57900;BME280;60605;53.716;19.940;2023-03-01T09:30:20;101452.16;;;24.65;28.57
57900;BME280;60605;53.716;19.940;2023-03-01T09:35:25;101452.85;;;22.96;28.96
57900;BME280;60605;53.716;19.940;2023-03-01T09:40:28;101459.59;;;20.49;30.17
57900;BME280;60605;53.716;19.940;2023-03-01T09:45:35;101455.50;;;17.82;33.15
57900;BME280;60605;53.716;19.940;2023-03-01T09:50:43;101451.55;;;15.38;35.78
57900;BME280;60605;53.716;19.940;2023-03-01T09:56:09;101450.92;;;13.61;39.33
57900;BME280;60605;53.716;19.940;2023-03-01T10:01:27;101441.48;;;12.79;41.97
57900;BME280;60605;53.716;19.940;2023-03-01T10:06:35;101436.58;;;12.42;43.33
57900;BME280;60605;53.716;19.940;2023-03-01T10:11:42;101436.23;;;12.28;43.96
57900;BME280;60605;53.716;19.940;2023-03-01T10:17:33;101433.73;;;12.42;44.81
57900;BME280;60605;53.716;19.940;2023-03-01T10:22:28;101428.20;;;12.90;43.87
57900;BME280;60605;53.716;19.940;2023-03-01T10:27:52;101422.92;;;12.71;44.94
57900;BME280;60605;53.716;19.940;2023-03-01T10:32:57;101418.73;;;11.81;46.78
57900;BME280;60605;53.716;19.940;2023-03-01T10:38:12;101421.30;;;10.77;48.29
57900;BME280;60605;53.716;19.940;2023-03-01T10:43:20;101417.39;;;9.87;50.42
57900;BME280;60605;53.716;19.940;2023-03-01T10:48:27;101418.30;;;9.18;52.32
57900;BME280;60605;53.716;19.940;2023-03-01T10:53:40;101414.73;;;8.61;54.24
57900;BME280;60605;53.716;19.940;2023-03-01T10:59:04;101408.08;;;8.18;55.94
57900;BME280;60605;53.716;19.940;2023-03-01T11:09:22;101402.14;;;7.89;59.02
57900;BME280;60605;53.716;19.940;2023-03-01T11:14:36;101396.40;;;7.83;60.03
57900;BME280;60605;53.716;19.940;2023-03-01T11:19:41;101390.95;;;7.74;60.89
57900;BME280;60605;53.716;19.940;2023-03-01T11:24:56;101389.78;;;7.76;61.74
57900;BME280;60605;53.716;19.940;2023-03-01T11:35:27;101382.42;;;7.82;62.79
57900;BME280;60605;53.716;19.940;2023-03-01T11:51:09;101371.41;;;8.01;63.79
57900;BME280;60605;53.716;19.940;2023-03-01T12:12:24;101374.17;;;8.19;65.10
57900;BME280;60605;53.716;19.940;2023-03-01T12:17:51;101369.50;;;8.20;64.93
57900;BME280;60605;53.716;19.940;2023-03-01T12:29:01;101364.64;;;8.21;65.73
57900;BME280;60605;53.716;19.940;2023-03-01T12:50:46;101361.30;;;8.13;66.55
57900;BME280;60605;53.716;19.940;2023-03-01T12:55:54;101357.19;;;8.11;66.88
57900;BME280;60605;53.716;19.940;2023-03-01T13:11:45;101341.95;;;8.10;67.60
57900;BME280;60605;53.716;19.940;2023-03-01T13:16:51;101338.36;;;8.10;67.80
57900;BME280;60605;53.716;19.940;2023-03-01T13:21:55;101338.47;;;8.11;67.79
57900;BME280;60605;53.716;19.940;2023-03-01T13:27:22;101333.37;;;8.10;67.96
57900;BME280;60605;53.716;19.940;2023-03-01T13:32:34;101331.02;;;8.08;67.90
57900;BME280;60605;53.716;19.940;2023-03-01T13:37:48;101332.69;;;8.07;68.26
57900;BME280;60605;53.716;19.940;2023-03-01T13:42:53;101329.05;;;8.08;68.37
57900;BME280;60605;53.716;19.940;2023-03-01T13:48:28;101323.11;;;8.07;68.26
57900;BME280;60605;53.716;19.940;2023-03-01T13:53:38;101322.61;;;8.04;68.47
57900;BME280;60605;53.716;19.940;2023-03-01T13:58:47;101322.86;;;8.03;68.78
57900;BME280;60605;53.716;19.940;2023-03-01T14:03:52;101318.92;;;8.03;68.84
57900;BME280;60605;53.716;19.940;2023-03-01T14:09:25;101314.98;;;8.01;68.79
57900;BME280;60605;53.716;19.940;2023-03-01T14:15:02;101303.77;;;7.97;68.89
57900;BME280;60605;53.716;19.940;2023-03-01T14:20:17;101300.04;;;7.89;69.01
57900;BME280;60605;53.716;19.940;2023-03-01T14:25:33;101295.18;;;7.82;69.13
57900;BME280;60605;53.716;19.940;2023-03-01T14:30:42;101289.20;;;7.77;69.25
57900;BME280;60605;53.716;19.940;2023-03-01T14:36:00;101285.89;;;7.71;69.52
57900;BME280;60605;53.716;19.940;2023-03-01T14:41:08;101280.83;;;7.65;69.76
57900;BME280;60605;53.716;19.940;2023-03-01T14:46:25;101276.62;;;7.57;69.99
57900;BME280;60605;53.716;19.940;2023-03-01T14:51:30;101277.09;;;7.47;70.36
57900;BME280;60605;53.716;19.940;2023-03-01T14:56:44;101277.62;;;7.38;70.59
57900;BME280;60605;53.716;19.940;2023-03-01T15:01:48;101274.36;;;7.26;70.90
57900;BME280;60605;53.716;19.940;2023-03-01T15:06:55;101268.84;;;7.14;71.43
57900;BME280;60605;53.716;19.940;2023-03-01T15:11:58;101259.99;;;7.00;71.78
57900;BME280;60605;53.716;19.940;2023-03-01T15:17:03;101260.23;;;6.87;72.31
57900;BME280;60605;53.716;19.940;2023-03-01T15:22:17;101259.12;;;6.72;72.84
57900;BME280;60605;53.716;19.940;2023-03-01T15:27:24;101248.73;;;6.55;73.44
57900;BME280;60605;53.716;19.940;2023-03-01T15:32:35;101246.37;;;6.38;74.19
57900;BME280;60605;53.716;19.940;2023-03-01T15:37:45;101248.06;;;6.21;74.81
57900;BME280;60605;53.716;19.940;2023-03-01T15:42:52;101249.46;;;6.02;75.38
57900;BME280;60605;53.716;19.940;2023-03-01T15:47:58;101252.02;;;5.82;75.92
57900;BME280;60605;53.716;19.940;2023-03-01T15:53:13;101253.65;;;5.62;76.82
57900;BME280;60605;53.716;19.940;2023-03-01T15:58:20;101250.02;;;5.41;78.27
57900;BME280;60605;53.716;19.940;2023-03-01T16:03:25;101259.01;;;5.19;79.23
57900;BME280;60605;53.716;19.940;2023-03-01T16:08:29;101266.63;;;4.96;80.20
57900;BME280;60605;53.716;19.940;2023-03-01T16:13:32;101271.02;;;4.70;81.25
57900;BME280;60605;53.716;19.940;2023-03-01T16:18:35;101269.92;;;4.45;82.23
57900;BME280;60605;53.716;19.940;2023-03-01T16:23:39;101267.14;;;4.20;83.23
57900;BME280;60605;53.716;19.940;2023-03-01T16:28:44;101267.33;;;3.95;84.20
57900;BME280;60605;53.716;19.940;2023-03-01T16:33:49;101271.45;;;3.72;85.36
57900;BME280;60605;53.716;19.940;2023-03-01T16:39:03;101278.00;;;3.52;87.84
57900;BME280;60605;53.716;19.940;2023-03-01T16:44:07;101287.06;;;3.39;89.90
57900;BME280;60605;53.716;19.940;2023-03-01T16:49:10;101294.92;;;3.27;90.92
57900;BME280;60605;53.716;19.940;2023-03-01T16:54:14;101294.16;;;3.15;90.78
57900;BME280;60605;53.716;19.940;2023-03-01T16:59:17;101291.37;;;3.01;90.88
57900;BME280;60605;53.716;19.940;2023-03-01T17:04:22;101296.54;;;2.87;91.28
57900;BME280;60605;53.716;19.940;2023-03-01T17:09:26;101298.05;;;2.75;91.86
57900;BME280;60605;53.716;19.940;2023-03-01T17:14:32;101299.45;;;2.58;91.52
57900;BME280;60605;53.716;19.940;2023-03-01T17:19:37;101297.50;;;2.37;91.73
57900;BME280;60605;53.716;19.940;2023-03-01T17:24:46;101292.20;;;2.16;92.33
57900;BME280;60605;53.716;19.940;2023-03-01T17:29:51;101287.25;;;1.98;93.24
57900;BME280;60605;53.716;19.940;2023-03-01T17:34:54;101285.73;;;1.82;93.93
57900;BME280;60605;53.716;19.940;2023-03-01T17:39:57;101282.95;;;1.66;94.32
57900;BME280;60605;53.716;19.940;2023-03-01T17:45:01;101286.48;;;1.47;94.47
57900;BME280;60605;53.716;19.940;2023-03-01T17:50:08;101284.39;;;1.28;94.70
57900;BME280;60605;53.716;19.940;2023-03-01T17:55:15;101284.68;;;1.10;95.08
57900;BME280;60605;53.716;19.940;2023-03-01T18:00:20;101294.55;;;0.94;95.86
57900;BME280;60605;53.716;19.940;2023-03-01T18:05:25;101297.60;;;0.85;97.28
57900;BME280;60605;53.716;19.940;2023-03-01T18:10:30;101299.79;;;0.79;97.42
57900;BME280;60605;53.716;19.940;2023-03-01T18:15:36;101307.89;;;0.70;97.24
57900;BME280;60605;53.716;19.940;2023-03-01T18:20:40;101304.95;;;0.61;97.37
57900;BME280;60605;53.716;19.940;2023-03-01T18:25:44;101304.17;;;0.51;97.71
57900;BME280;60605;53.716;19.940;2023-03-01T18:30:47;101307.60;;;0.44;98.38
57900;BME280;60605;53.716;19.940;2023-03-01T18:35:51;101300.78;;;0.43;99.38
57900;BME280;60605;53.716;19.940;2023-03-01T18:40:56;101301.94;;;0.46;99.95
57900;BME280;60605;53.716;19.940;2023-03-01T18:45:59;101306.39;;;0.48;100.00
57900;BME280;60605;53.716;19.940;2023-03-01T18:51:09;101307.77;;;0.53;100.00
57900;BME280;60605;53.716;19.940;2023-03-01T18:56:13;101305.30;;;0.61;100.00
57900;BME280;60605;53.716;19.940;2023-03-01T19:01:21;101304.56;;;0.70;100.00
57900;BME280;60605;53.716;19.940;2023-03-01T19:06:30;101309.23;;;0.80;100.00
57900;BME280;60605;53.716;19.940;2023-03-01T19:11:36;101308.79;;;0.90;100.00
57900;BME280;60605;53.716;19.940;2023-03-01T19:16:40;101314.89;;;1.00;100.00
57900;BME280;60605;53.716;19.940;2023-03-01T19:21:45;101327.51;;;1.08;100.00
57900;BME280;60605;53.716;19.940;2023-03-01T19:27:07;101333.11;;;1.17;100.00
57900;BME280;60605;53.716;19.940;2023-03-01T19:32:13;101334.03;;;1.24;100.00
57900;BME280;60605;53.716;19.940;2023-03-01T19:37:18;101330.73;;;1.31;100.00
57900;BME280;60605;53.716;19.940;2023-03-01T19:42:22;101330.05;;;1.34;100.00
57900;BME280;60605;53.716;19.940;2023-03-01T19:47:31;101339.05;;;1.37;100.00
57900;BME280;60605;53.716;19.940;2023-03-01T19:52:34;101333.41;;;1.41;100.00
57900;BME280;60605;53.716;19.940;2023-03-01T19:57:38;101330.52;;;1.43;100.00
57900;BME280;60605;53.716;19.940;2023-03-01T20:02:41;101325.65;;;1.46;100.00
57900;BME280;60605;53.716;19.940;2023-03-01T20:07:48;101326.61;;;1.51;100.00
57900;BME280;60605;53.716;19.940;2023-03-01T20:12:56;101326.39;;;1.56;100.00
57900;BME280;60605;53.716;19.940;2023-03-01T20:18:00;101326.96;;;1.59;100.00
57900;BME280;60605;53.716;19.940;2023-03-01T20:23:05;101321.71;;;1.62;100.00
57900;BME280;60605;53.716;19.940;2023-03-01T20:28:09;101322.15;;;1.64;100.00
57900;BME280;60605;53.716;19.940;2023-03-01T20:33:13;101324.20;;;1.65;100.00
57900;BME280;60605;53.716;19.940;2023-03-01T20:38:18;101327.21;;;1.65;100.00
57900;BME280;60605;53.716;19.940;2023-03-01T20:43:22;101324.65;;;1.64;100.00
57900;BME280;60605;53.716;19.940;2023-03-01T20:48:26;101322.65;;;1.61;100.00
57900;BME280;60605;53.716;19.940;2023-03-01T20:53:29;101317.88;;;1.58;100.00
57900;BME280;60605;53.716;19.940;2023-03-01T20:58:32;101316.88;;;1.53;100.00
57900;BME280;60605;53.716;19.940;2023-03-01T21:03:38;101315.13;;;1.48;100.00
57900;BME280;60605;53.716;19.940;2023-03-01T21:08:42;101306.48;;;1.42;100.00
57900;BME280;60605;53.716;19.940;2023-03-01T21:13:46;101310.33;;;1.30;100.00
57900;BME280;60605;53.716;19.940;2023-03-01T21:18:49;101322.63;;;1.19;100.00
57900;BME280;60605;53.716;19.940;2023-03-01T21:23:53;101326.79;;;1.13;100.00
57900;BME280;60605;53.716;19.940;2023-03-01T21:28:59;101321.73;;;1.08;100.00
57900;BME280;60605;53.716;19.940;2023-03-01T21:34:05;101316.71;;;1.06;100.00
57900;BME280;60605;53.716;19.940;2023-03-01T21:39:10;101326.15;;;1.07;100.00
57900;BME280;60605;53.716;19.940;2023-03-01T21:44:14;101334.58;;;1.11;100.00
57900;BME280;60605;53.716;19.940;2023-03-01T21:49:18;101343.10;;;1.18;100.00
57900;BME280;60605;53.716;19.940;2023-03-01T21:54:22;101335.98;;;1.23;100.00
57900;BME280;60605;53.716;19.940;2023-03-01T21:59:25;101330.63;;;1.29;100.00
57900;BME280;60605;53.716;19.940;2023-03-01T22:04:30;101319.95;;;1.36;100.00
57900;BME280;60605;53.716;19.940;2023-03-01T22:09:33;101314.55;;;1.42;100.00
57900;BME280;60605;53.716;19.940;2023-03-01T22:14:38;101314.50;;;1.47;100.00
57900;BME280;60605;53.716;19.940;2023-03-01T22:19:42;101309.46;;;1.50;100.00
57900;BME280;60605;53.716;19.940;2023-03-01T22:24:45;101310.97;;;1.51;100.00
57900;BME280;60605;53.716;19.940;2023-03-01T22:29:48;101320.02;;;1.53;100.00
57900;BME280;60605;53.716;19.940;2023-03-01T22:34:52;101316.37;;;1.56;100.00
57900;BME280;60605;53.716;19.940;2023-03-01T22:39:55;101317.36;;;1.61;100.00
57900;BME280;60605;53.716;19.940;2023-03-01T22:44:59;101323.26;;;1.67;100.00
57900;BME280;60605;53.716;19.940;2023-03-01T22:50:05;101321.73;;;1.73;100.00
57900;BME280;60605;53.716;19.940;2023-03-01T22:55:09;101318.11;;;1.79;100.00
57900;BME280;60605;53.716;19.940;2023-03-01T23:00:13;101320.44;;;1.90;100.00
57900;BME280;60605;53.716;19.940;2023-03-01T23:05:17;101319.89;;;2.01;100.00
57900;BME280;60605;53.716;19.940;2023-03-01T23:10:20;101325.93;;;2.11;100.00
57900;BME280;60605;53.716;19.940;2023-03-01T23:15:23;101325.43;;;2.18;100.00
57900;BME280;60605;53.716;19.940;2023-03-01T23:20:26;101319.11;;;2.21;100.00
57900;BME280;60605;53.716;19.940;2023-03-01T23:25:30;101317.04;;;2.23;100.00
57900;BME280;60605;53.716;19.940;2023-03-01T23:30:33;101331.69;;;2.27;100.00
57900;BME280;60605;53.716;19.940;2023-03-01T23:35:37;101335.22;;;2.30;100.00
57900;BME280;60605;53.716;19.940;2023-03-01T23:40:40;101337.26;;;2.32;100.00
57900;BME280;60605;53.716;19.940;2023-03-01T23:45:44;101335.38;;;2.34;100.00
57900;BME280;60605;53.716;19.940;2023-03-01T23:50:47;101335.52;;;2.35;100.00
57900;BME280;60605;53.716;19.940;2023-03-01T23:55:52;101333.89;;;2.35;100.00
